sensor_id;sensor_type;location;lat;lon;timestamp;P1;durP1;ratioP1;P2;durP2;ratioP2
46563;SDS011;32291;52.010;4.446;2023-03-14T00:01:10;8.48;;;2.72;;
46563;SDS011;32291;52.010;4.446;2023-03-14T00:02:55;10.48;;;2.70;;
46563;SDS011;32291;52.010;4.446;2023-03-14T00:04:37;9.77;;;2.33;;
46563;SDS011;32291;52.010;4.446;2023-03-14T00:06:22;13.20;;;2.90;;
46563;SDS011;32291;52.010;4.446;2023-03-14T00:08:07;7.20;;;2.58;;
46563;SDS011;32291;52.010;4.446;2023-03-14T00:10:09;6.28;;;1.80;;
46563;SDS011;32291;52.010;4.446;2023-03-14T00:12:12;9.43;;;2.17;;
46563;SDS011;32291;52.010;4.446;2023-03-14T00:13:59;6.93;;;2.85;;
46563;SDS011;32291;52.010;4.446;2023-03-14T00:15:49;8.75;;;2.15;;
46563;SDS011;32291;52.010;4.446;2023-03-14T00:17:36;12.07;;;1.92;;
46563;SDS011;32291;52.010;4.446;2023-03-14T00:19:25;7.78;;;1.65;;
46563;SDS011;32291;52.010;4.446;2023-03-14T00:21:13;7.60;;;2.15;;
46563;SDS011;32291;52.010;4.446;2023-03-14T00:23:01;9.23;;;1.80;;
46563;SDS011;32291;52.010;4.446;2023-03-14T00:24:48;8.93;;;2.40;;
46563;SDS011;32291;52.010;4.446;2023-03-14T00:26:33;8.15;;;2.05;;
46563;SDS011;32291;52.010;4.446;2023-03-14T00:28:21;10.10;;;2.22;;
46563;SDS011;32291;52.010;4.446;2023-03-14T00:30:07;8.77;;;3.40;;
46563;SDS011;32291;52.010;4.446;2023-03-14T00:31:48;11.55;;;2.25;;
46563;SDS011;32291;52.010;4.446;2023-03-14T00:33:28;8.48;;;2.28;;
46563;SDS011;32291;52.010;4.446;2023-03-14T00:35:16;9.13;;;2.58;;
46563;SDS011;32291;52.010;4.446;2023-03-14T00:37:17;9.68;;;2.53;;
46563;SDS011;32291;52.010;4.446;2023-03-14T00:39:17;11.40;;;3.28;;
46563;SDS011;32291;52.010;4.446;2023-03-14T00:41:18;10.05;;;2.47;;
46563;SDS011;32291;52.010;4.446;2023-03-14T00:43:20;9.57;;;2.58;;
46563;SDS011;32291;52.010;4.446;2023-03-14T00:45:07;12.63;;;2.65;;
46563;SDS011;32291;52.010;4.446;2023-03-14T00:47:04;9.85;;;2.25;;
46563;SDS011;32291;52.010;4.446;2023-03-14T00:48:59;9.40;;;2.63;;
46563;SDS011;32291;52.010;4.446;2023-03-14T00:50:59;15.45;;;2.83;;
46563;SDS011;32291;52.010;4.446;2023-03-14T00:52:55;19.05;;;3.00;;
46563;SDS011;32291;52.010;4.446;2023-03-14T00:54:55;10.85;;;2.13;;
46563;SDS011;32291;52.010;4.446;2023-03-14T00:56:49;8.57;;;2.38;;
46563;SDS011;32291;52.010;4.446;2023-03-14T00:58:28;10.82;;;2.50;;
46563;SDS011;32291;52.010;4.446;2023-03-14T01:00:11;10.68;;;2.60;;
46563;SDS011;32291;52.010;4.446;2023-03-14T01:02:06;13.10;;;4.13;;
46563;SDS011;32291;52.010;4.446;2023-03-14T01:03:53;11.88;;;2.65;;
46563;SDS011;32291;52.010;4.446;2023-03-14T01:05:54;11.73;;;3.03;;
46563;SDS011;32291;52.010;4.446;2023-03-14T01:08:02;11.65;;;2.38;;
46563;SDS011;32291;52.010;4.446;2023-03-14T01:09:56;16.15;;;2.28;;
46563;SDS011;32291;52.010;4.446;2023-03-14T01:11:43;12.68;;;3.63;;
46563;SDS011;32291;52.010;4.446;2023-03-14T01:13:33;13.93;;;3.22;;
46563;SDS011;32291;52.010;4.446;2023-03-14T01:15:13;14.35;;;2.80;;
46563;SDS011;32291;52.010;4.446;2023-03-14T01:17:06;16.85;;;3.38;;
46563;SDS011;32291;52.010;4.446;2023-03-14T01:18:41;9.60;;;3.22;;
46563;SDS011;32291;52.010;4.446;2023-03-14T01:20:25;8.85;;;2.30;;
46563;SDS011;32291;52.010;4.446;2023-03-14T01:22:00;10.70;;;2.50;;
46563;SDS011;32291;52.010;4.446;2023-03-14T01:23:43;10.90;;;2.95;;
46563;SDS011;32291;52.010;4.446;2023-03-14T01:25:26;8.15;;;2.40;;
46563;SDS011;32291;52.010;4.446;2023-03-14T01:27:05;6.88;;;2.03;;
46563;SDS011;32291;52.010;4.446;2023-03-14T01:28:42;10.80;;;2.47;;
46563;SDS011;32291;52.010;4.446;2023-03-14T01:30:23;10.98;;;2.83;;
46563;SDS011;32291;52.010;4.446;2023-03-14T01:32:07;12.02;;;2.55;;
46563;SDS011;32291;52.010;4.446;2023-03-14T01:33:56;7.75;;;2.83;;
46563;SDS011;32291;52.010;4.446;2023-03-14T01:35:32;8.98;;;2.70;;
46563;SDS011;32291;52.010;4.446;2023-03-14T01:37:22;12.30;;;2.47;;
46563;SDS011;32291;52.010;4.446;2023-03-14T01:38:56;8.30;;;2.80;;
46563;SDS011;32291;52.010;4.446;2023-03-14T01:40:41;10.93;;;2.63;;
46563;SDS011;32291;52.010;4.446;2023-03-14T01:42:45;9.23;;;2.83;;
46563;SDS011;32291;52.010;4.446;2023-03-14T01:46:57;13.45;;;2.65;;
46563;SDS011;32291;52.010;4.446;2023-03-14T01:48:50;10.55;;;2.42;;
46563;SDS011;32291;52.010;4.446;2023-03-14T01:50:38;11.63;;;2.58;;
46563;SDS011;32291;52.010;4.446;2023-03-14T01:52:45;9.18;;;2.65;;
46563;SDS011;32291;52.010;4.446;2023-03-14T01:54:43;11.65;;;3.17;;
46563;SDS011;32291;52.010;4.446;2023-03-14T01:56:22;12.43;;;2.67;;
46563;SDS011;32291;52.010;4.446;2023-03-14T01:58:03;12.32;;;3.05;;
46563;SDS011;32291;52.010;4.446;2023-03-14T01:59:57;12.82;;;2.63;;
46563;SDS011;32291;52.010;4.446;2023-03-14T02:01:53;9.40;;;2.53;;
46563;SDS011;32291;52.010;4.446;2023-03-14T02:03:50;8.13;;;1.88;;
46563;SDS011;32291;52.010;4.446;2023-03-14T02:05:46;10.57;;;1.88;;
46563;SDS011;32291;52.010;4.446;2023-03-14T02:07:54;7.40;;;1.50;;
46563;SDS011;32291;52.010;4.446;2023-03-14T02:09:52;7.00;;;1.40;;
46563;SDS011;32291;52.010;4.446;2023-03-14T02:11:53;10.77;;;2.20;;
46563;SDS011;32291;52.010;4.446;2023-03-14T02:13:29;8.88;;;2.13;;
46563;SDS011;32291;52.010;4.446;2023-03-14T02:15:28;6.88;;;1.80;;
46563;SDS011;32291;52.010;4.446;2023-03-14T02:17:16;7.68;;;2.13;;
46563;SDS011;32291;52.010;4.446;2023-03-14T02:18:52;6.90;;;1.35;;
46563;SDS011;32291;52.010;4.446;2023-03-14T02:23:13;11.88;;;3.17;;
46563;SDS011;32291;52.010;4.446;2023-03-14T02:27:06;8.70;;;2.13;;
46563;SDS011;32291;52.010;4.446;2023-03-14T02:28:49;9.02;;;2.38;;
46563;SDS011;32291;52.010;4.446;2023-03-14T02:30:31;9.90;;;2.42;;
46563;SDS011;32291;52.010;4.446;2023-03-14T02:32:12;7.55;;;2.08;;
46563;SDS011;32291;52.010;4.446;2023-03-14T02:34:16;8.15;;;1.90;;
46563;SDS011;32291;52.010;4.446;2023-03-14T02:36:09;8.20;;;2.10;;
46563;SDS011;32291;52.010;4.446;2023-03-14T02:40:30;5.43;;;1.77;;
46563;SDS011;32291;52.010;4.446;2023-03-14T02:42:21;6.60;;;1.92;;
46563;SDS011;32291;52.010;4.446;2023-03-14T02:44:10;5.75;;;1.83;;
46563;SDS011;32291;52.010;4.446;2023-03-14T02:45:56;6.97;;;2.38;;
46563;SDS011;32291;52.010;4.446;2023-03-14T02:47:46;9.68;;;2.30;;
46563;SDS011;32291;52.010;4.446;2023-03-14T02:50:05;9.90;;;2.05;;
46563;SDS011;32291;52.010;4.446;2023-03-14T02:52:12;10.23;;;2.50;;
46563;SDS011;32291;52.010;4.446;2023-03-14T02:54:08;11.43;;;2.45;;
46563;SDS011;32291;52.010;4.446;2023-03-14T02:55:50;6.57;;;2.13;;
46563;SDS011;32291;52.010;4.446;2023-03-14T02:57:33;7.80;;;2.40;;
46563;SDS011;32291;52.010;4.446;2023-03-14T02:59:20;10.57;;;1.98;;
46563;SDS011;32291;52.010;4.446;2023-03-14T03:01:15;12.20;;;2.80;;
46563;SDS011;32291;52.010;4.446;2023-03-14T03:03:00;8.65;;;2.53;;
46563;SDS011;32291;52.010;4.446;2023-03-14T03:04:40;7.82;;;2.72;;
46563;SDS011;32291;52.010;4.446;2023-03-14T03:06:26;14.65;;;3.05;;
46563;SDS011;32291;52.010;4.446;2023-03-14T03:08:18;5.97;;;2.50;;
46563;SDS011;32291;52.010;4.446;2023-03-14T03:10:08;12.15;;;2.60;;
46563;SDS011;32291;52.010;4.446;2023-03-14T03:11:50;14.57;;;2.67;;
46563;SDS011;32291;52.010;4.446;2023-03-14T03:13:38;11.48;;;2.80;;
46563;SDS011;32291;52.010;4.446;2023-03-14T03:15:31;9.27;;;2.40;;
46563;SDS011;32291;52.010;4.446;2023-03-14T03:17:20;10.13;;;2.42;;
46563;SDS011;32291;52.010;4.446;2023-03-14T03:19:06;8.15;;;2.78;;
46563;SDS011;32291;52.010;4.446;2023-03-14T03:20:59;8.88;;;2.72;;
46563;SDS011;32291;52.010;4.446;2023-03-14T03:22:49;8.85;;;3.00;;
46563;SDS011;32291;52.010;4.446;2023-03-14T03:24:40;10.20;;;2.35;;
46563;SDS011;32291;52.010;4.446;2023-03-14T03:26:31;8.85;;;2.78;;
46563;SDS011;32291;52.010;4.446;2023-03-14T03:28:24;16.25;;;3.50;;
46563;SDS011;32291;52.010;4.446;2023-03-14T03:30:12;11.63;;;2.95;;
46563;SDS011;32291;52.010;4.446;2023-03-14T03:32:12;9.70;;;2.60;;
46563;SDS011;32291;52.010;4.446;2023-03-14T03:34:08;5.45;;;2.47;;
46563;SDS011;32291;52.010;4.446;2023-03-14T03:36:01;10.02;;;2.92;;
46563;SDS011;32291;52.010;4.446;2023-03-14T03:38:00;9.27;;;2.70;;
46563;SDS011;32291;52.010;4.446;2023-03-14T03:39:51;8.45;;;2.47;;
46563;SDS011;32291;52.010;4.446;2023-03-14T03:41:45;7.97;;;2.63;;
46563;SDS011;32291;52.010;4.446;2023-03-14T03:43:41;10.32;;;2.50;;
46563;SDS011;32291;52.010;4.446;2023-03-14T03:45:41;10.23;;;2.20;;
46563;SDS011;32291;52.010;4.446;2023-03-14T03:47:41;7.38;;;2.45;;
46563;SDS011;32291;52.010;4.446;2023-03-14T03:49:41;14.30;;;3.33;;
46563;SDS011;32291;52.010;4.446;2023-03-14T03:51:39;8.30;;;1.92;;
46563;SDS011;32291;52.010;4.446;2023-03-14T03:53:21;11.15;;;2.72;;
46563;SDS011;32291;52.010;4.446;2023-03-14T03:55:10;9.57;;;2.83;;
46563;SDS011;32291;52.010;4.446;2023-03-14T03:57:03;11.25;;;2.88;;
46563;SDS011;32291;52.010;4.446;2023-03-14T03:59:00;6.68;;;1.85;;
46563;SDS011;32291;52.010;4.446;2023-03-14T04:00:54;12.55;;;3.10;;
46563;SDS011;32291;52.010;4.446;2023-03-14T04:02:44;9.98;;;2.50;;
46563;SDS011;32291;52.010;4.446;2023-03-14T04:04:29;6.22;;;2.10;;
46563;SDS011;32291;52.010;4.446;2023-03-14T04:06:29;10.77;;;2.65;;
46563;SDS011;32291;52.010;4.446;2023-03-14T04:08:29;5.10;;;1.80;;
46563;SDS011;32291;52.010;4.446;2023-03-14T04:10:28;8.07;;;2.60;;
46563;SDS011;32291;52.010;4.446;2023-03-14T04:12:24;6.15;;;2.28;;
46563;SDS011;32291;52.010;4.446;2023-03-14T04:14:20;6.57;;;2.00;;
46563;SDS011;32291;52.010;4.446;2023-03-14T04:16:17;6.68;;;2.05;;
46563;SDS011;32291;52.010;4.446;2023-03-14T04:18:07;10.70;;;2.47;;
46563;SDS011;32291;52.010;4.446;2023-03-14T04:19:57;11.65;;;3.08;;
46563;SDS011;32291;52.010;4.446;2023-03-14T04:21:58;10.90;;;2.50;;
46563;SDS011;32291;52.010;4.446;2023-03-14T04:23:57;11.77;;;3.15;;
46563;SDS011;32291;52.010;4.446;2023-03-14T04:25:56;8.02;;;2.45;;
46563;SDS011;32291;52.010;4.446;2023-03-14T04:27:56;6.57;;;2.30;;
46563;SDS011;32291;52.010;4.446;2023-03-14T04:29:53;5.50;;;2.22;;
46563;SDS011;32291;52.010;4.446;2023-03-14T04:31:53;7.90;;;2.30;;
46563;SDS011;32291;52.010;4.446;2023-03-14T04:33:53;10.68;;;3.10;;
46563;SDS011;32291;52.010;4.446;2023-03-14T04:35:53;11.63;;;3.00;;
46563;SDS011;32291;52.010;4.446;2023-03-14T04:37:54;9.93;;;2.47;;
46563;SDS011;32291;52.010;4.446;2023-03-14T04:39:54;8.38;;;3.00;;
46563;SDS011;32291;52.010;4.446;2023-03-14T04:41:54;8.70;;;2.55;;
46563;SDS011;32291;52.010;4.446;2023-03-14T04:43:55;17.83;;;3.55;;
46563;SDS011;32291;52.010;4.446;2023-03-14T04:45:56;14.10;;;3.47;;
46563;SDS011;32291;52.010;4.446;2023-03-14T04:47:57;10.27;;;2.92;;
46563;SDS011;32291;52.010;4.446;2023-03-14T04:49:57;6.07;;;2.35;;
46563;SDS011;32291;52.010;4.446;2023-03-14T04:51:58;13.90;;;2.88;;
46563;SDS011;32291;52.010;4.446;2023-03-14T04:53:58;9.55;;;2.97;;
46563;SDS011;32291;52.010;4.446;2023-03-14T04:55:59;11.15;;;2.70;;
46563;SDS011;32291;52.010;4.446;2023-03-14T04:57:59;7.40;;;2.33;;
46563;SDS011;32291;52.010;4.446;2023-03-14T05:00:00;5.43;;;2.13;;
46563;SDS011;32291;52.010;4.446;2023-03-14T05:02:04;9.80;;;3.05;;
46563;SDS011;32291;52.010;4.446;2023-03-14T05:04:05;8.75;;;2.85;;
46563;SDS011;32291;52.010;4.446;2023-03-14T05:06:05;8.48;;;2.75;;
46563;SDS011;32291;52.010;4.446;2023-03-14T05:08:06;11.65;;;3.22;;
46563;SDS011;32291;52.010;4.446;2023-03-14T05:10:06;6.20;;;2.63;;
46563;SDS011;32291;52.010;4.446;2023-03-14T05:12:07;7.03;;;2.67;;
46563;SDS011;32291;52.010;4.446;2023-03-14T05:14:07;8.23;;;3.33;;
46563;SDS011;32291;52.010;4.446;2023-03-14T05:16:09;4.78;;;3.03;;
46563;SDS011;32291;52.010;4.446;2023-03-14T05:18:11;7.20;;;4.57;;
46563;SDS011;32291;52.010;4.446;2023-03-14T05:20:11;8.45;;;6.10;;
46563;SDS011;32291;52.010;4.446;2023-03-14T05:22:12;10.38;;;7.88;;
46563;SDS011;32291;52.010;4.446;2023-03-14T05:24:12;7.80;;;4.85;;
46563;SDS011;32291;52.010;4.446;2023-03-14T05:26:12;7.95;;;4.05;;
46563;SDS011;32291;52.010;4.446;2023-03-14T05:28:13;8.23;;;2.40;;
46563;SDS011;32291;52.010;4.446;2023-03-14T05:30:13;8.52;;;2.22;;
46563;SDS011;32291;52.010;4.446;2023-03-14T05:32:13;10.02;;;2.55;;
46563;SDS011;32291;52.010;4.446;2023-03-14T05:34:14;10.63;;;2.92;;
46563;SDS011;32291;52.010;4.446;2023-03-14T05:36:14;14.38;;;2.58;;
46563;SDS011;32291;52.010;4.446;2023-03-14T05:38:14;6.82;;;1.90;;
46563;SDS011;32291;52.010;4.446;2023-03-14T05:40:14;7.07;;;1.58;;
46563;SDS011;32291;52.010;4.446;2023-03-14T05:42:15;11.07;;;1.90;;
46563;SDS011;32291;52.010;4.446;2023-03-14T05:44:15;7.38;;;1.27;;
46563;SDS011;32291;52.010;4.446;2023-03-14T05:46:16;3.28;;;1.23;;
46563;SDS011;32291;52.010;4.446;2023-03-14T05:48:16;4.10;;;1.80;;
46563;SDS011;32291;52.010;4.446;2023-03-14T05:50:16;5.80;;;1.70;;
46563;SDS011;32291;52.010;4.446;2023-03-14T05:52:16;8.20;;;2.38;;
46563;SDS011;32291;52.010;4.446;2023-03-14T05:54:16;9.85;;;1.70;;
46563;SDS011;32291;52.010;4.446;2023-03-14T05:56:17;9.57;;;1.33;;
46563;SDS011;32291;52.010;4.446;2023-03-14T05:58:17;6.88;;;1.70;;
46563;SDS011;32291;52.010;4.446;2023-03-14T06:00:17;8.73;;;2.13;;
46563;SDS011;32291;52.010;4.446;2023-03-14T06:02:17;6.32;;;1.58;;
46563;SDS011;32291;52.010;4.446;2023-03-14T06:04:16;8.77;;;2.15;;
46563;SDS011;32291;52.010;4.446;2023-03-14T06:06:16;7.78;;;1.90;;
46563;SDS011;32291;52.010;4.446;2023-03-14T06:08:16;5.60;;;2.28;;
46563;SDS011;32291;52.010;4.446;2023-03-14T06:10:16;6.45;;;1.77;;
46563;SDS011;32291;52.010;4.446;2023-03-14T06:12:16;6.45;;;1.63;;
46563;SDS011;32291;52.010;4.446;2023-03-14T06:14:17;8.27;;;1.42;;
46563;SDS011;32291;52.010;4.446;2023-03-14T06:16:18;6.78;;;1.52;;
46563;SDS011;32291;52.010;4.446;2023-03-14T06:18:17;4.97;;;1.60;;
46563;SDS011;32291;52.010;4.446;2023-03-14T06:20:17;10.65;;;2.55;;
46563;SDS011;32291;52.010;4.446;2023-03-14T06:22:16;9.45;;;1.73;;
46563;SDS011;32291;52.010;4.446;2023-03-14T06:24:16;6.25;;;1.60;;
46563;SDS011;32291;52.010;4.446;2023-03-14T06:26:17;6.70;;;1.88;;
46563;SDS011;32291;52.010;4.446;2023-03-14T06:28:17;7.15;;;1.40;;
46563;SDS011;32291;52.010;4.446;2023-03-14T06:30:17;3.83;;;1.55;;
46563;SDS011;32291;52.010;4.446;2023-03-14T06:32:18;6.80;;;2.10;;
46563;SDS011;32291;52.010;4.446;2023-03-14T06:34:17;9.82;;;1.88;;
46563;SDS011;32291;52.010;4.446;2023-03-14T06:36:17;6.43;;;1.48;;
46563;SDS011;32291;52.010;4.446;2023-03-14T06:38:18;8.45;;;1.40;;
46563;SDS011;32291;52.010;4.446;2023-03-14T06:40:18;10.63;;;1.80;;
46563;SDS011;32291;52.010;4.446;2023-03-14T06:42:18;6.07;;;1.40;;
46563;SDS011;32291;52.010;4.446;2023-03-14T06:44:19;12.82;;;1.70;;
46563;SDS011;32291;52.010;4.446;2023-03-14T06:46:19;11.18;;;2.05;;
46563;SDS011;32291;52.010;4.446;2023-03-14T06:48:19;11.43;;;1.95;;
46563;SDS011;32291;52.010;4.446;2023-03-14T06:50:19;5.00;;;1.38;;
46563;SDS011;32291;52.010;4.446;2023-03-14T06:52:19;5.78;;;1.30;;
46563;SDS011;32291;52.010;4.446;2023-03-14T06:54:20;7.50;;;1.73;;
46563;SDS011;32291;52.010;4.446;2023-03-14T06:56:21;8.05;;;1.88;;
46563;SDS011;32291;52.010;4.446;2023-03-14T06:58:11;5.97;;;1.63;;
46563;SDS011;32291;52.010;4.446;2023-03-14T07:00:10;11.82;;;2.00;;
46563;SDS011;32291;52.010;4.446;2023-03-14T07:02:07;10.10;;;1.95;;
46563;SDS011;32291;52.010;4.446;2023-03-14T07:04:10;12.40;;;2.53;;
46563;SDS011;32291;52.010;4.446;2023-03-14T07:06:13;8.43;;;2.05;;
46563;SDS011;32291;52.010;4.446;2023-03-14T07:08:10;6.53;;;1.77;;
46563;SDS011;32291;52.010;4.446;2023-03-14T07:10:06;8.18;;;1.67;;
46563;SDS011;32291;52.010;4.446;2023-03-14T07:12:05;10.65;;;2.10;;
46563;SDS011;32291;52.010;4.446;2023-03-14T07:14:04;10.77;;;2.13;;
46563;SDS011;32291;52.010;4.446;2023-03-14T07:16:01;8.90;;;1.83;;
46563;SDS011;32291;52.010;4.446;2023-03-14T07:18:02;13.82;;;2.30;;
46563;SDS011;32291;52.010;4.446;2023-03-14T07:19:58;12.63;;;2.30;;
46563;SDS011;32291;52.010;4.446;2023-03-14T07:21:50;12.48;;;2.83;;
46563;SDS011;32291;52.010;4.446;2023-03-14T07:23:44;10.32;;;3.28;;
46563;SDS011;32291;52.010;4.446;2023-03-14T07:25:40;10.82;;;2.33;;
46563;SDS011;32291;52.010;4.446;2023-03-14T07:27:33;8.77;;;1.90;;
46563;SDS011;32291;52.010;4.446;2023-03-14T07:29:21;9.20;;;2.15;;
46563;SDS011;32291;52.010;4.446;2023-03-14T07:31:08;9.40;;;2.08;;
46563;SDS011;32291;52.010;4.446;2023-03-14T07:32:54;12.90;;;2.53;;
46563;SDS011;32291;52.010;4.446;2023-03-14T07:34:38;11.05;;;1.83;;
46563;SDS011;32291;52.010;4.446;2023-03-14T07:36:22;9.85;;;2.33;;
46563;SDS011;32291;52.010;4.446;2023-03-14T07:38:08;11.30;;;1.80;;
46563;SDS011;32291;52.010;4.446;2023-03-14T07:39:53;7.00;;;1.83;;
46563;SDS011;32291;52.010;4.446;2023-03-14T07:41:41;6.30;;;1.50;;
46563;SDS011;32291;52.010;4.446;2023-03-14T07:43:25;10.45;;;2.22;;
46563;SDS011;32291;52.010;4.446;2023-03-14T07:45:05;5.05;;;2.08;;
46563;SDS011;32291;52.010;4.446;2023-03-14T07:46:48;8.63;;;2.30;;
46563;SDS011;32291;52.010;4.446;2023-03-14T07:48:24;10.93;;;3.97;;
46563;SDS011;32291;52.010;4.446;2023-03-14T07:50:03;9.13;;;3.17;;
46563;SDS011;32291;52.010;4.446;2023-03-14T07:51:41;8.57;;;2.35;;
46563;SDS011;32291;52.010;4.446;2023-03-14T07:53:14;10.23;;;2.63;;
46563;SDS011;32291;52.010;4.446;2023-03-14T07:54:49;15.02;;;3.25;;
46563;SDS011;32291;52.010;4.446;2023-03-14T07:56:24;15.15;;;2.45;;
46563;SDS011;32291;52.010;4.446;2023-03-14T07:57:59;5.57;;;2.40;;
46563;SDS011;32291;52.010;4.446;2023-03-14T07:59:33;13.10;;;2.70;;
46563;SDS011;32291;52.010;4.446;2023-03-14T08:01:09;16.42;;;3.05;;
46563;SDS011;32291;52.010;4.446;2023-03-14T08:02:41;7.38;;;1.85;;
46563;SDS011;32291;52.010;4.446;2023-03-14T08:04:43;9.38;;;2.38;;
46563;SDS011;32291;52.010;4.446;2023-03-14T08:06:25;7.93;;;1.50;;
46563;SDS011;32291;52.010;4.446;2023-03-14T08:08:05;10.38;;;2.33;;
46563;SDS011;32291;52.010;4.446;2023-03-14T08:09:48;10.45;;;2.20;;
46563;SDS011;32291;52.010;4.446;2023-03-14T08:11:32;11.18;;;2.03;;
46563;SDS011;32291;52.010;4.446;2023-03-14T08:13:17;12.27;;;2.85;;
46563;SDS011;32291;52.010;4.446;2023-03-14T08:14:58;8.20;;;2.20;;
46563;SDS011;32291;52.010;4.446;2023-03-14T08:16:43;10.57;;;2.42;;
46563;SDS011;32291;52.010;4.446;2023-03-14T08:18:26;9.25;;;2.00;;
46563;SDS011;32291;52.010;4.446;2023-03-14T08:20:14;8.85;;;1.95;;
46563;SDS011;32291;52.010;4.446;2023-03-14T08:21:59;10.75;;;1.80;;
46563;SDS011;32291;52.010;4.446;2023-03-14T08:23:43;12.77;;;3.42;;
46563;SDS011;32291;52.010;4.446;2023-03-14T08:25:25;13.18;;;2.00;;
46563;SDS011;32291;52.010;4.446;2023-03-14T08:26:56;10.90;;;1.70;;
46563;SDS011;32291;52.010;4.446;2023-03-14T08:28:42;7.65;;;1.67;;
46563;SDS011;32291;52.010;4.446;2023-03-14T08:30:21;5.78;;;2.05;;
46563;SDS011;32291;52.010;4.446;2023-03-14T08:31:59;8.73;;;1.38;;
46563;SDS011;32291;52.010;4.446;2023-03-14T08:34:00;9.23;;;1.55;;
46563;SDS011;32291;52.010;4.446;2023-03-14T08:35:47;9.50;;;1.70;;
46563;SDS011;32291;52.010;4.446;2023-03-14T08:37:26;5.22;;;1.15;;
46563;SDS011;32291;52.010;4.446;2023-03-14T08:39:04;7.85;;;1.40;;
46563;SDS011;32291;52.010;4.446;2023-03-14T08:40:39;5.47;;;1.20;;
46563;SDS011;32291;52.010;4.446;2023-03-14T08:42:16;4.00;;;1.23;;
46563;SDS011;32291;52.010;4.446;2023-03-14T08:43:52;7.53;;;1.35;;
46563;SDS011;32291;52.010;4.446;2023-03-14T08:45:27;5.82;;;1.52;;
46563;SDS011;32291;52.010;4.446;2023-03-14T08:47:02;12.98;;;2.70;;
46563;SDS011;32291;52.010;4.446;2023-03-14T08:48:34;8.63;;;1.50;;
46563;SDS011;32291;52.010;4.446;2023-03-14T08:50:07;4.97;;;1.70;;
46563;SDS011;32291;52.010;4.446;2023-03-14T08:51:43;8.43;;;1.92;;
46563;SDS011;32291;52.010;4.446;2023-03-14T08:53:42;10.88;;;1.95;;
46563;SDS011;32291;52.010;4.446;2023-03-14T08:55:17;6.65;;;1.55;;
46563;SDS011;32291;52.010;4.446;2023-03-14T08:56:48;6.85;;;2.28;;
46563;SDS011;32291;52.010;4.446;2023-03-14T08:58:18;5.18;;;1.38;;
46563;SDS011;32291;52.010;4.446;2023-03-14T08:59:45;10.80;;;1.95;;
46563;SDS011;32291;52.010;4.446;2023-03-14T09:01:15;8.85;;;1.83;;
46563;SDS011;32291;52.010;4.446;2023-03-14T09:02:44;5.45;;;1.65;;
46563;SDS011;32291;52.010;4.446;2023-03-14T09:04:12;9.70;;;2.03;;
46563;SDS011;32291;52.010;4.446;2023-03-14T09:05:41;13.68;;;2.65;;
46563;SDS011;32291;52.010;4.446;2023-03-14T09:07:09;11.75;;;2.30;;
46563;SDS011;32291;52.010;4.446;2023-03-14T09:08:38;16.17;;;3.03;;
46563;SDS011;32291;52.010;4.446;2023-03-14T09:10:08;14.95;;;2.50;;
46563;SDS011;32291;52.010;4.446;2023-03-14T09:11:40;14.38;;;2.50;;
46563;SDS011;32291;52.010;4.446;2023-03-14T09:13:09;13.95;;;2.30;;
46563;SDS011;32291;52.010;4.446;2023-03-14T09:14:51;18.67;;;3.17;;
46563;SDS011;32291;52.010;4.446;2023-03-14T09:16:19;17.13;;;3.85;;
46563;SDS011;32291;52.010;4.446;2023-03-14T09:17:46;11.45;;;2.72;;
46563;SDS011;32291;52.010;4.446;2023-03-14T09:19:13;15.70;;;3.03;;
46563;SDS011;32291;52.010;4.446;2023-03-14T09:20:39;11.65;;;2.50;;
46563;SDS011;32291;52.010;4.446;2023-03-14T09:22:06;14.07;;;2.95;;
46563;SDS011;32291;52.010;4.446;2023-03-14T09:23:36;19.60;;;3.97;;
46563;SDS011;32291;52.010;4.446;2023-03-14T09:25:05;17.30;;;2.92;;
46563;SDS011;32291;52.010;4.446;2023-03-14T09:26:35;17.95;;;3.13;;
46563;SDS011;32291;52.010;4.446;2023-03-14T09:28:04;13.20;;;2.72;;
46563;SDS011;32291;52.010;4.446;2023-03-14T09:29:36;21.30;;;2.90;;
46563;SDS011;32291;52.010;4.446;2023-03-14T09:31:10;18.77;;;3.80;;
46563;SDS011;32291;52.010;4.446;2023-03-14T09:32:42;14.70;;;3.35;;
46563;SDS011;32291;52.010;4.446;2023-03-14T09:34:35;13.93;;;2.38;;
46563;SDS011;32291;52.010;4.446;2023-03-14T09:36:07;11.43;;;2.20;;
46563;SDS011;32291;52.010;4.446;2023-03-14T09:37:42;12.80;;;2.03;;
46563;SDS011;32291;52.010;4.446;2023-03-14T09:39:17;12.48;;;2.65;;
46563;SDS011;32291;52.010;4.446;2023-03-14T09:40:53;11.80;;;2.03;;
46563;SDS011;32291;52.010;4.446;2023-03-14T09:42:32;8.90;;;2.97;;
46563;SDS011;32291;52.010;4.446;2023-03-14T09:44:11;18.77;;;2.83;;
46563;SDS011;32291;52.010;4.446;2023-03-14T09:46:00;13.02;;;3.30;;
46563;SDS011;32291;52.010;4.446;2023-03-14T09:47:41;10.95;;;2.88;;
46563;SDS011;32291;52.010;4.446;2023-03-14T09:49:39;16.38;;;2.85;;
46563;SDS011;32291;52.010;4.446;2023-03-14T09:51:18;13.68;;;2.72;;
46563;SDS011;32291;52.010;4.446;2023-03-14T09:52:59;16.05;;;3.55;;
46563;SDS011;32291;52.010;4.446;2023-03-14T09:54:47;13.60;;;3.30;;
46563;SDS011;32291;52.010;4.446;2023-03-14T09:56:51;17.65;;;3.00;;
46563;SDS011;32291;52.010;4.446;2023-03-14T09:58:29;21.48;;;3.53;;
46563;SDS011;32291;52.010;4.446;2023-03-14T10:02:00;11.77;;;2.45;;
46563;SDS011;32291;52.010;4.446;2023-03-14T10:03:35;11.73;;;3.47;;
46563;SDS011;32291;52.010;4.446;2023-03-14T10:05:18;18.73;;;4.10;;
46563;SDS011;32291;52.010;4.446;2023-03-14T10:06:54;18.40;;;3.47;;
46563;SDS011;32291;52.010;4.446;2023-03-14T10:08:31;23.15;;;5.05;;
46563;SDS011;32291;52.010;4.446;2023-03-14T10:10:08;19.58;;;3.60;;
46563;SDS011;32291;52.010;4.446;2023-03-14T10:11:47;21.23;;;3.60;;
46563;SDS011;32291;52.010;4.446;2023-03-14T10:13:21;12.70;;;2.70;;
46563;SDS011;32291;52.010;4.446;2023-03-14T10:15:12;20.33;;;3.60;;
46563;SDS011;32291;52.010;4.446;2023-03-14T10:17:07;17.50;;;3.38;;
46563;SDS011;32291;52.010;4.446;2023-03-14T10:18:45;23.60;;;4.32;;
46563;SDS011;32291;52.010;4.446;2023-03-14T10:22:29;16.15;;;3.30;;
46563;SDS011;32291;52.010;4.446;2023-03-14T10:24:27;17.27;;;4.03;;
46563;SDS011;32291;52.010;4.446;2023-03-14T10:26:16;17.67;;;3.38;;
46563;SDS011;32291;52.010;4.446;2023-03-14T10:27:52;17.40;;;4.10;;
46563;SDS011;32291;52.010;4.446;2023-03-14T10:29:25;24.23;;;3.47;;
46563;SDS011;32291;52.010;4.446;2023-03-14T10:30:57;20.35;;;3.67;;
46563;SDS011;32291;52.010;4.446;2023-03-14T10:32:33;16.60;;;3.33;;
46563;SDS011;32291;52.010;4.446;2023-03-14T10:34:14;21.33;;;4.45;;
46563;SDS011;32291;52.010;4.446;2023-03-14T10:35:45;23.25;;;5.20;;
46563;SDS011;32291;52.010;4.446;2023-03-14T10:37:24;15.05;;;3.75;;
46563;SDS011;32291;52.010;4.446;2023-03-14T10:41:19;15.45;;;3.33;;
46563;SDS011;32291;52.010;4.446;2023-03-14T10:43:16;19.15;;;3.55;;
46563;SDS011;32291;52.010;4.446;2023-03-14T10:44:54;20.13;;;3.75;;
46563;SDS011;32291;52.010;4.446;2023-03-14T10:46:29;16.75;;;3.20;;
46563;SDS011;32291;52.010;4.446;2023-03-14T10:48:17;17.63;;;3.70;;
46563;SDS011;32291;52.010;4.446;2023-03-14T10:50:30;13.80;;;3.55;;
46563;SDS011;32291;52.010;4.446;2023-03-14T10:52:13;10.10;;;2.65;;
46563;SDS011;32291;52.010;4.446;2023-03-14T10:54:03;19.75;;;4.50;;
46563;SDS011;32291;52.010;4.446;2023-03-14T10:55:59;17.20;;;3.03;;
46563;SDS011;32291;52.010;4.446;2023-03-14T10:57:40;16.05;;;3.05;;
46563;SDS011;32291;52.010;4.446;2023-03-14T10:59:29;14.20;;;3.35;;
46563;SDS011;32291;52.010;4.446;2023-03-14T11:03:38;14.45;;;2.83;;
46563;SDS011;32291;52.010;4.446;2023-03-14T11:05:32;18.77;;;3.63;;
46563;SDS011;32291;52.010;4.446;2023-03-14T11:07:17;13.23;;;2.53;;
46563;SDS011;32291;52.010;4.446;2023-03-14T11:09:37;14.35;;;3.17;;
46563;SDS011;32291;52.010;4.446;2023-03-14T11:11:34;14.73;;;2.88;;